createdAt,value
2019-04-28T00:01:15.680Z,7.30
2019-04-28T00:02:25.098Z,7.30
2019-04-28T00:03:29.518Z,7.20
2019-04-28T00:04:33.857Z,7.20
2019-04-28T00:05:38.216Z,7.20
2019-04-28T00:06:42.658Z,7.20
2019-04-28T00:07:47.055Z,7.10
2019-04-28T00:08:51.842Z,7.20
2019-04-28T00:09:56.354Z,7.20
2019-04-28T00:11:01.835Z,7.10
2019-04-28T00:12:06.530Z,7.10
2019-04-28T00:13:11.893Z,7.20
2019-04-28T00:14:16.620Z,7.10
2019-04-28T00:15:21.483Z,7.20
2019-04-28T00:16:27.730Z,7.20
2019-04-28T00:17:32.641Z,7.20
2019-04-28T00:18:38.969Z,7.20
2019-04-28T00:19:43.328Z,7.20
2019-04-28T00:21:05.652Z,7.30
2019-04-28T00:22:34.890Z,7.20
2019-04-28T00:24:01.774Z,7.20
2019-04-28T00:25:11.759Z,7.20
2019-04-28T00:26:26.852Z,7.30
2019-04-28T00:27:32.529Z,7.30
2019-04-28T00:28:36.974Z,7.30
2019-04-28T00:29:45.957Z,7.30
2019-04-28T00:30:47.852Z,7.30
2019-04-28T00:31:52.229Z,7.30
2019-04-28T00:32:56.716Z,7.30
2019-04-28T00:34:01.484Z,7.30
2019-04-28T00:35:06.283Z,7.30
2019-04-28T00:36:11.568Z,7.30
2019-04-28T00:37:26.789Z,7.20
2019-04-28T00:38:31.673Z,7.20
2019-04-28T00:39:36.254Z,7.30
2019-04-28T00:40:41.387Z,7.20
2019-04-28T00:41:46.096Z,7.30
2019-04-28T00:42:51.187Z,7.20
2019-04-28T00:43:55.698Z,7.30
2019-04-28T00:45:01.622Z,7.30
2019-04-28T00:46:08.193Z,7.30
2019-04-28T00:47:13.161Z,7.30
2019-04-28T00:48:17.527Z,7.30
2019-04-28T00:49:41.996Z,7.30
2019-04-28T00:50:46.681Z,7.30
2019-04-28T00:51:51.019Z,7.40
2019-04-28T00:52:55.912Z,7.40
2019-04-28T00:54:01.489Z,7.40
2019-04-28T00:55:06.666Z,7.30
2019-04-28T00:56:12.084Z,7.40
2019-04-28T00:57:17.143Z,7.40
2019-04-28T00:58:21.658Z,7.40
2019-04-28T00:59:25.982Z,7.40
2019-04-28T01:00:33.461Z,7.30
2019-04-28T01:01:57.019Z,7.30
2019-04-28T01:03:02.189Z,7.30
2019-04-28T01:04:06.805Z,7.30
2019-04-28T01:05:11.855Z,7.30
2019-04-28T01:06:16.242Z,7.30
2019-04-28T01:07:21.316Z,7.30
2019-04-28T01:08:25.925Z,7.30
2019-04-28T01:09:31.568Z,7.20
2019-04-28T01:10:36.133Z,7.30
2019-04-28T01:11:41.441Z,7.30
2019-04-28T01:12:47.169Z,7.20
2019-04-28T01:13:51.861Z,7.30
2019-04-28T01:14:59.669Z,7.20
2019-04-28T01:16:10.534Z,7.20
2019-04-28T01:17:34.732Z,7.20
2019-04-28T01:18:47.354Z,7.20
2019-04-28T01:19:52.652Z,7.20
2019-04-28T01:20:57.064Z,7.20
2019-04-28T01:22:11.913Z,7.10
2019-04-28T01:23:16.533Z,7.10
2019-04-28T01:24:20.892Z,7.20
2019-04-28T01:25:25.266Z,7.20
2019-04-28T01:26:30.277Z,7.20
2019-04-28T01:27:53.536Z,7.20
2019-04-28T01:28:59.570Z,7.20
2019-04-28T01:30:09.142Z,7.10
2019-04-28T01:31:30.600Z,7.20
2019-04-28T01:32:41.309Z,7.10
2019-04-28T01:34:04.791Z,7.10
2019-04-28T01:35:11.076Z,7.20
2019-04-28T01:36:15.726Z,7.20
2019-04-28T01:37:20.171Z,7.10
2019-04-28T01:38:24.565Z,7.10
2019-04-28T01:39:29.739Z,7.10
2019-04-28T01:40:34.266Z,7.20
2019-04-28T01:41:39.704Z,7.20
2019-04-28T01:42:44.509Z,7.20
2019-04-28T01:43:48.913Z,7.20
2019-04-28T01:44:53.487Z,7.20
2019-04-28T01:45:57.871Z,7.20
2019-04-28T01:47:03.720Z,7.20
2019-04-28T01:48:09.704Z,7.20
2019-04-28T01:49:14.603Z,7.20
2019-04-28T01:50:20.421Z,7.10
2019-04-28T01:51:25.101Z,7.10
2019-04-28T01:52:30.294Z,7.10
2019-04-28T01:53:34.915Z,7.10
2019-04-28T01:54:40.263Z,7.10
2019-04-28T01:55:44.823Z,7.10
2019-04-28T01:56:50.231Z,7.10
2019-04-28T01:57:54.808Z,7.10
2019-04-28T01:59:00.531Z,7.10
2019-04-28T02:00:21.390Z,7.10
2019-04-28T02:01:14.264Z,7.10
2019-04-28T02:02:19.892Z,7.10
2019-04-28T02:03:25.012Z,7.10
2019-04-28T02:04:30.071Z,7.10
2019-04-28T02:05:35.725Z,7.00
2019-04-28T02:06:40.775Z,7.00
2019-04-28T02:07:46.216Z,7.10
2019-04-28T02:08:51.327Z,7.10
2019-04-28T02:09:55.770Z,7.10
2019-04-28T02:11:01.999Z,7.10
2019-04-28T02:12:06.570Z,7.10
2019-04-28T02:13:11.413Z,7.10
2019-04-28T02:14:15.837Z,7.00
2019-04-28T02:15:20.340Z,7.10
2019-04-28T02:16:24.766Z,7.00
2019-04-28T02:17:30.472Z,7.10
2019-04-28T02:18:35.135Z,7.10
2019-04-28T02:19:40.953Z,7.00
2019-04-28T02:20:49.358Z,7.00
2019-04-28T02:22:16.005Z,7.00
2019-04-28T02:23:25.502Z,7.00
2019-04-28T02:24:31.302Z,7.00
2019-04-28T02:25:35.662Z,7.00
2019-04-28T02:26:41.792Z,7.10
2019-04-28T02:27:46.207Z,7.10
2019-04-28T02:28:50.612Z,7.10
2019-04-28T02:29:55.193Z,7.10
2019-04-28T02:31:02.025Z,7.10
2019-04-28T02:32:06.993Z,7.10
2019-04-28T02:33:13.605Z,7.10
2019-04-28T02:34:20.597Z,7.10
2019-04-28T02:35:24.351Z,7.10
2019-04-28T02:36:31.184Z,7.10
2019-04-28T02:37:34.885Z,7.10
2019-04-28T02:38:41.454Z,7.10
2019-04-28T02:39:45.345Z,7.10
2019-04-28T02:40:50.341Z,7.20
2019-04-28T02:41:56.898Z,7.20
2019-04-28T02:43:02.256Z,7.30
2019-04-28T02:44:06.813Z,7.20
2019-04-28T02:45:12.811Z,7.20
2019-04-28T02:46:17.379Z,7.20
2019-04-28T02:47:22.150Z,7.20
2019-04-28T02:48:27.311Z,7.20
2019-04-28T02:49:50.376Z,7.20
2019-04-28T02:51:17.827Z,7.20
2019-04-28T02:52:41.642Z,7.20
2019-04-28T02:53:51.042Z,7.20
2019-04-28T02:54:54.766Z,7.20
2019-04-28T02:56:00.865Z,7.20
2019-04-28T02:57:12.355Z,7.20
2019-04-28T02:58:16.787Z,7.20
2019-04-28T02:59:21.232Z,7.20
2019-04-28T03:00:25.774Z,7.20
2019-04-28T03:01:30.806Z,7.20
2019-04-28T03:02:35.806Z,7.20
2019-04-28T03:03:40.929Z,7.20
2019-04-28T03:04:45.610Z,7.20
2019-04-28T03:05:51.227Z,7.20
2019-04-28T03:06:55.812Z,7.20
2019-04-28T03:08:01.013Z,7.30
2019-04-28T03:09:07.373Z,7.20
2019-04-28T03:10:12.132Z,7.20
2019-04-28T03:11:16.819Z,7.20
2019-04-28T03:12:21.730Z,7.20
2019-04-28T03:13:26.597Z,7.20
2019-04-28T03:14:31.097Z,7.20
2019-04-28T03:15:35.561Z,7.20
2019-04-28T03:16:41.014Z,7.20
2019-04-28T03:17:45.733Z,7.10
2019-04-28T03:18:51.441Z,7.20
2019-04-28T03:19:56.135Z,7.20
2019-04-28T03:21:03.606Z,7.10
2019-04-28T03:22:11.250Z,7.10
2019-04-28T03:23:14.657Z,7.10
2019-04-28T03:24:21.831Z,7.20
2019-04-28T03:25:45.430Z,7.20
2019-04-28T03:26:56.796Z,7.20
2019-04-28T03:28:14.161Z,7.20
2019-04-28T03:29:41.342Z,7.20
2019-04-28T03:31:33.644Z,7.20
2019-04-28T03:32:30.509Z,7.20
2019-04-28T03:33:25.687Z,7.20
2019-04-28T03:34:43.679Z,7.20
2019-04-28T03:35:53.079Z,7.10
2019-04-28T03:36:54.455Z,7.20
2019-04-28T03:38:01.233Z,7.10
2019-04-28T03:39:07.241Z,7.10
2019-04-28T03:40:12.019Z,7.20
2019-04-28T03:41:22.498Z,7.20
2019-04-28T03:42:26.811Z,7.20
2019-04-28T03:43:31.384Z,7.10
2019-04-28T03:44:35.755Z,7.10
2019-04-28T03:45:45.925Z,7.10
2019-04-28T03:46:53.307Z,7.10
2019-04-28T03:48:00.206Z,7.10
2019-04-28T03:49:03.737Z,7.20
2019-04-28T03:50:10.428Z,7.20
2019-04-28T03:51:16.942Z,7.20
2019-04-28T03:52:21.647Z,7.20
2019-04-28T03:53:26.195Z,7.10
2019-04-28T03:54:31.241Z,7.10
2019-04-28T03:55:36.032Z,7.10
2019-04-28T03:56:41.285Z,7.10
2019-04-28T03:57:45.792Z,7.10
2019-04-28T03:58:50.522Z,7.10
2019-04-28T03:59:55.083Z,7.10
2019-04-28T04:01:02.674Z,7.10
2019-04-28T04:02:05.755Z,7.10
2019-04-28T04:03:11.107Z,7.10
2019-04-28T04:04:16.073Z,7.10
2019-04-28T04:05:21.013Z,7.10
2019-04-28T04:06:25.498Z,7.10
2019-04-28T04:07:31.084Z,7.10
2019-04-28T04:08:36.050Z,7.10
2019-04-28T04:10:00.918Z,7.10
2019-04-28T04:11:27.974Z,7.00
2019-04-28T04:12:57.452Z,7.00
2019-04-28T04:14:21.162Z,7.00
2019-04-28T04:15:54.828Z,7.00
2019-04-28T04:17:16.947Z,7.00
2019-04-28T04:18:42.113Z,7.00
2019-04-28T04:19:46.655Z,7.00
2019-04-28T04:20:51.398Z,7.00
2019-04-28T04:21:55.876Z,7.10
2019-04-28T04:23:01.406Z,7.00
2019-04-28T04:24:06.271Z,7.10
2019-04-28T04:25:12.663Z,7.10
2019-04-28T04:26:17.159Z,7.10
2019-04-28T04:27:22.646Z,7.10
2019-04-28T04:28:27.068Z,7.10
2019-04-28T04:29:31.778Z,7.10
2019-04-28T04:30:36.373Z,7.10
2019-04-28T04:31:41.410Z,7.10
2019-04-28T04:32:46.093Z,7.10
2019-04-28T04:33:51.461Z,7.10
2019-04-28T04:34:55.808Z,7.10
2019-04-28T04:36:01.662Z,7.10
2019-04-28T04:37:07.672Z,7.10
2019-04-28T04:38:12.714Z,7.20
2019-04-28T04:39:20.655Z,7.20
2019-04-28T04:40:24.827Z,7.20
2019-04-28T04:41:30.560Z,7.20
2019-04-28T04:42:36.467Z,7.20
2019-04-28T04:43:41.644Z,7.20
2019-04-28T04:44:46.501Z,7.20
2019-04-28T04:45:54.782Z,7.20
2019-04-28T04:47:01.063Z,7.30
2019-04-28T04:48:05.576Z,7.20
2019-04-28T04:49:10.756Z,7.20
2019-04-28T04:50:16.027Z,7.20
2019-04-28T04:51:21.424Z,7.20
2019-04-28T04:52:30.355Z,7.20
2019-04-28T04:53:32.339Z,7.20
2019-04-28T04:54:36.996Z,7.20
2019-04-28T04:55:41.647Z,7.20
2019-04-28T04:56:46.127Z,7.20
2019-04-28T04:57:50.793Z,7.30
2019-04-28T04:58:55.507Z,7.30
2019-04-28T05:00:00.711Z,7.30
2019-04-28T05:01:12.454Z,7.30
2019-04-28T05:02:29.377Z,7.30
2019-04-28T05:03:32.498Z,7.30
2019-04-28T05:05:00.622Z,7.30
2019-04-28T05:06:24.015Z,7.40
2019-04-28T05:07:29.717Z,7.40
2019-04-28T05:08:34.089Z,7.40
2019-04-28T05:09:39.524Z,7.40
2019-04-28T05:10:44.266Z,7.40
2019-04-28T05:11:49.918Z,7.50
2019-04-28T05:12:54.476Z,7.50
2019-04-28T05:13:59.641Z,7.50
2019-04-28T05:15:04.792Z,7.60
2019-04-28T05:16:10.480Z,7.60
2019-04-28T05:17:15.193Z,7.60
2019-04-28T05:18:20.017Z,7.60
2019-04-28T05:19:24.572Z,7.60
2019-04-28T05:20:30.276Z,7.70
2019-04-28T05:21:34.986Z,7.70
2019-04-28T05:22:46.044Z,7.70
2019-04-28T05:24:15.797Z,7.80
2019-04-28T05:25:39.601Z,7.80
2019-04-28T05:26:47.720Z,7.90
2019-04-28T05:27:54.590Z,7.90
2019-04-28T05:28:56.688Z,7.90
2019-04-28T05:30:03.988Z,8.00
2019-04-28T05:31:07.368Z,8.00
2019-04-28T05:32:12.456Z,8.00
2019-04-28T05:33:33.443Z,8.00
2019-04-28T05:34:39.820Z,8.10
2019-04-28T05:35:41.782Z,8.10
2019-04-28T05:36:46.230Z,8.10
2019-04-28T05:37:51.640Z,8.20
2019-04-28T05:38:57.832Z,8.20
2019-04-28T05:40:03.565Z,8.30
2019-04-28T05:41:10.427Z,8.30
2019-04-28T05:42:14.776Z,8.30
2019-04-28T05:43:19.570Z,8.30
2019-04-28T05:44:25.895Z,8.30
2019-04-28T05:45:32.174Z,8.30
2019-04-28T05:46:36.929Z,8.40
2019-04-28T05:47:41.284Z,8.40
2019-04-28T05:48:55.718Z,8.40
2019-04-28T05:50:14.468Z,8.40
2019-04-28T05:51:20.002Z,8.50
2019-04-28T05:52:50.193Z,8.50
2019-04-28T05:54:05.068Z,8.50
2019-04-28T05:55:14.325Z,8.60
2019-04-28T05:56:43.735Z,8.70
2019-04-28T05:57:53.878Z,8.70
2019-04-28T05:59:05.091Z,8.70
2019-04-28T06:00:29.809Z,8.70
2019-04-28T06:01:53.365Z,8.80
2019-04-28T06:02:58.259Z,8.80
2019-04-28T06:04:03.179Z,8.80
2019-04-28T06:05:07.564Z,8.90
2019-04-28T06:06:12.218Z,8.90
2019-04-28T06:07:26.446Z,9.00
2019-04-28T06:08:50.995Z,9.00
2019-04-28T06:09:56.014Z,9.10
2019-04-28T06:11:01.898Z,9.20
2019-04-28T06:12:10.279Z,9.20
2019-04-28T06:13:16.704Z,9.30
2019-04-28T06:14:21.015Z,9.40
2019-04-28T06:15:25.406Z,9.50
2019-04-28T06:16:30.447Z,9.50
2019-04-28T06:17:34.985Z,9.50
2019-04-28T06:18:42.035Z,9.60
2019-04-28T06:19:47.151Z,9.70
2019-04-28T06:20:51.744Z,9.70
2019-04-28T06:21:56.141Z,9.80
2019-04-28T06:23:00.886Z,9.90
2019-04-28T06:24:05.721Z,9.90
2019-04-28T06:25:10.107Z,10.00
2019-04-28T06:26:14.730Z,10.10
2019-04-28T06:27:19.128Z,10.20
2019-04-28T06:28:25.253Z,10.20
2019-04-28T06:29:29.586Z,10.30
2019-04-28T06:30:33.904Z,10.50
2019-04-28T06:31:38.255Z,10.60
2019-04-28T06:32:44.063Z,10.70
2019-04-28T06:33:48.512Z,10.80
2019-04-28T06:34:52.882Z,10.80
2019-04-28T06:35:57.212Z,10.90
2019-04-28T06:37:01.703Z,11.00
2019-04-28T06:38:07.504Z,11.00
2019-04-28T06:39:12.260Z,11.00
2019-04-28T06:40:16.807Z,11.10
2019-04-28T06:41:22.337Z,11.20
2019-04-28T06:42:28.264Z,11.10
2019-04-28T06:43:32.580Z,11.20
2019-04-28T06:44:36.976Z,11.40
2019-04-28T06:45:41.363Z,11.40
2019-04-28T06:46:45.791Z,11.40
2019-04-28T06:47:50.278Z,11.40
2019-04-28T06:48:54.707Z,11.40
2019-04-28T06:49:59.182Z,11.40
2019-04-28T06:51:03.547Z,11.50
2019-04-28T06:52:07.994Z,11.50
2019-04-28T06:53:13.546Z,11.50
2019-04-28T06:54:18.101Z,11.50
2019-04-28T06:55:22.573Z,11.50
2019-04-28T06:56:26.983Z,11.50
2019-04-28T06:57:31.435Z,11.60
2019-04-28T06:58:35.849Z,11.60
2019-04-28T06:59:40.287Z,11.60
2019-04-28T07:00:44.652Z,11.70
2019-04-28T07:01:49.232Z,11.70
2019-04-28T07:02:53.585Z,11.80
2019-04-28T07:03:59.241Z,11.90
2019-04-28T07:05:03.780Z,11.90
2019-04-28T07:06:09.058Z,11.90
2019-04-28T07:07:15.116Z,12.00
2019-04-28T07:08:19.511Z,12.00
2019-04-28T07:09:23.887Z,12.10
2019-04-28T07:10:28.450Z,12.20
2019-04-28T07:11:32.827Z,12.30
2019-04-28T07:12:38.285Z,12.30
2019-04-28T07:13:44.942Z,12.30
2019-04-28T07:14:49.418Z,12.30
2019-04-28T07:15:54.284Z,12.40
2019-04-28T07:16:58.951Z,12.40
2019-04-28T07:18:03.584Z,12.50
2019-04-28T07:19:08.438Z,12.60
2019-04-28T07:20:30.517Z,12.60
2019-04-28T07:21:40.207Z,13.00
2019-04-28T07:22:45.029Z,13.10
2019-04-28T07:23:49.668Z,13.30
2019-04-28T07:24:54.115Z,13.40
2019-04-28T07:25:58.745Z,13.40
2019-04-28T07:27:03.327Z,13.60
2019-04-28T07:28:08.921Z,13.60
2019-04-28T07:29:14.067Z,13.70
2019-04-28T07:30:19.039Z,13.80
2019-04-28T07:31:24.701Z,13.80
2019-04-28T07:32:29.328Z,13.80
2019-04-28T07:33:36.162Z,13.80
2019-04-28T07:34:39.883Z,13.70
2019-04-28T07:35:46.835Z,13.70
2019-04-28T07:36:51.335Z,13.70
2019-04-28T07:37:55.785Z,13.70
2019-04-28T07:39:00.515Z,13.80
2019-04-28T07:40:05.424Z,13.80
2019-04-28T07:41:11.335Z,14.00
2019-04-28T07:42:16.135Z,14.10
2019-04-28T07:43:20.601Z,14.10
2019-04-28T07:44:25.089Z,14.30
2019-04-28T07:45:29.462Z,14.40
2019-04-28T07:46:35.881Z,14.70
2019-04-28T07:47:40.348Z,14.90
2019-04-28T07:48:44.825Z,15.10
2019-04-28T07:49:49.976Z,15.10
2019-04-28T07:50:54.374Z,15.20
2019-04-28T07:52:17.948Z,15.40
2019-04-28T07:53:27.152Z,15.60
2019-04-28T07:54:31.569Z,16.00
2019-04-28T07:55:36.150Z,16.30
2019-04-28T07:56:42.364Z,16.40
2019-04-28T07:57:46.875Z,16.40
2019-04-28T07:58:51.513Z,16.60
2019-04-28T07:59:56.007Z,16.70
2019-04-28T08:01:00.528Z,16.80
2019-04-28T08:02:05.185Z,17.10
2019-04-28T08:03:10.310Z,17.50
2019-04-28T08:04:16.661Z,18.00
2019-04-28T08:05:21.296Z,18.20
2019-04-28T08:06:26.979Z,18.20
2019-04-28T08:07:31.510Z,18.10
2019-04-28T08:08:36.038Z,17.90
2019-04-28T08:09:40.872Z,17.50
2019-04-28T08:10:45.358Z,17.40
2019-04-28T08:11:50.042Z,17.20
2019-04-28T08:12:54.484Z,17.10
2019-04-28T08:13:59.018Z,17.00
2019-04-28T08:15:03.465Z,16.90
2019-04-28T08:16:07.973Z,16.80
2019-04-28T08:17:12.980Z,16.70
2019-04-28T08:18:17.660Z,16.30
2019-04-28T08:19:22.193Z,16.30
2019-04-28T08:20:26.714Z,16.40
2019-04-28T08:21:31.219Z,16.50
2019-04-28T08:22:35.734Z,16.40
2019-04-28T08:23:46.883Z,16.40
2019-04-28T08:24:46.331Z,16.30
2019-04-28T08:25:50.926Z,16.20
2019-04-28T08:26:55.600Z,16.10
2019-04-28T08:28:00.419Z,16.30
2019-04-28T08:29:04.914Z,16.60
2019-04-28T08:30:10.000Z,16.80
2019-04-28T08:31:16.269Z,16.90
2019-04-28T08:32:45.712Z,17.10
2019-04-28T08:34:02.692Z,17.20
2019-04-28T08:35:02.973Z,17.30
2019-04-28T08:36:07.373Z,17.30
2019-04-28T08:37:15.079Z,17.10
2019-04-28T08:38:19.566Z,16.80
2019-04-28T08:39:26.851Z,16.70
2019-04-28T08:40:31.369Z,16.30
2019-04-28T08:41:35.705Z,16.00
2019-04-28T08:42:40.501Z,15.70
2019-04-28T08:43:44.938Z,15.40
2019-04-28T08:44:49.486Z,14.90
2019-04-28T08:45:53.981Z,14.50
2019-04-28T08:46:58.408Z,14.30
2019-04-28T08:48:03.904Z,13.90
2019-04-28T08:49:08.346Z,13.50
2019-04-28T08:50:13.715Z,13.10
2019-04-28T08:51:20.059Z,12.70
2019-04-28T08:52:24.522Z,12.30
2019-04-28T08:53:29.029Z,11.80
2019-04-28T08:54:33.649Z,11.40
2019-04-28T08:55:38.186Z,11.00
2019-04-28T08:56:42.994Z,10.80
2019-04-28T08:57:47.651Z,10.50
2019-04-28T08:58:52.038Z,10.40
2019-04-28T08:59:56.637Z,10.30
2019-04-28T09:01:03.845Z,10.20
2019-04-28T09:02:08.541Z,10.00
2019-04-28T09:03:15.354Z,9.90
2019-04-28T09:04:19.532Z,9.90
2019-04-28T09:05:24.118Z,9.90
2019-04-28T09:06:28.490Z,10.00
2019-04-28T09:07:33.126Z,10.00
2019-04-28T09:08:37.673Z,10.00
2019-04-28T09:09:43.649Z,10.00
2019-04-28T09:10:48.059Z,10.10
2019-04-28T09:11:52.904Z,10.00
2019-04-28T09:12:57.373Z,10.00
2019-04-28T09:14:01.908Z,9.90
2019-04-28T09:15:07.098Z,9.90
2019-04-28T09:16:11.775Z,9.90
2019-04-28T09:17:16.224Z,10.00
2019-04-28T09:18:20.692Z,10.00
2019-04-28T09:19:25.150Z,10.10
2019-04-28T09:20:29.682Z,10.20
2019-04-28T09:21:34.088Z,10.30
2019-04-28T09:22:38.451Z,10.30
2019-04-28T09:23:42.969Z,10.40
2019-04-28T09:24:47.454Z,10.50
2019-04-28T09:25:52.204Z,10.60
2019-04-28T09:26:56.576Z,10.70
2019-04-28T09:28:01.011Z,10.90
2019-04-28T09:29:05.562Z,11.00
2019-04-28T09:30:10.174Z,11.10
2019-04-28T09:31:14.854Z,11.40
2019-04-28T09:32:19.392Z,11.60
2019-04-28T09:33:24.067Z,11.90
2019-04-28T09:34:29.518Z,12.10
2019-04-28T09:35:33.932Z,12.40
2019-04-28T09:36:39.805Z,12.60
2019-04-28T09:37:44.213Z,12.80
2019-04-28T09:38:48.771Z,12.90
2019-04-28T09:40:12.465Z,13.00
2019-04-28T09:41:17.148Z,13.20
2019-04-28T09:42:55.949Z,13.50
2019-04-28T09:44:16.359Z,13.80
2019-04-28T09:45:23.826Z,14.20
2019-04-28T09:46:33.957Z,14.60
2019-04-28T09:47:38.583Z,14.80
2019-04-28T09:48:52.412Z,14.90
2019-04-28T09:49:58.100Z,15.00
2019-04-28T09:51:02.605Z,15.20
2019-04-28T09:52:06.973Z,15.30
2019-04-28T09:53:11.741Z,15.40
2019-04-28T09:54:16.346Z,15.50
2019-04-28T09:55:20.775Z,15.50
2019-04-28T09:56:25.125Z,15.50
2019-04-28T09:57:30.692Z,15.50
2019-04-28T09:58:35.351Z,15.50
2019-04-28T09:59:39.913Z,15.40
2019-04-28T10:00:44.579Z,15.20
2019-04-28T10:01:49.092Z,15.00
2019-04-28T10:02:53.514Z,14.80
2019-04-28T10:03:58.169Z,14.70
2019-04-28T10:05:02.729Z,14.60
2019-04-28T10:06:07.424Z,14.70
2019-04-28T10:07:12.198Z,14.70
2019-04-28T10:08:16.899Z,14.90
2019-04-28T10:09:22.621Z,14.90
2019-04-28T10:10:27.207Z,14.90
2019-04-28T10:11:31.632Z,14.90
2019-04-28T10:12:36.290Z,15.00
2019-04-28T10:13:40.868Z,15.10
2019-04-28T10:14:45.383Z,15.30
2019-04-28T10:15:50.140Z,15.60
2019-04-28T10:16:54.667Z,15.90
2019-04-28T10:17:59.239Z,16.20
2019-04-28T10:19:03.676Z,16.50
2019-04-28T10:20:08.685Z,16.70
2019-04-28T10:21:13.803Z,16.80
2019-04-28T10:22:18.413Z,16.90
2019-04-28T10:23:22.876Z,17.20
2019-04-28T10:24:27.315Z,17.40
2019-04-28T10:25:31.681Z,17.60
2019-04-28T10:26:36.180Z,17.60
2019-04-28T10:27:40.992Z,17.60
2019-04-28T10:28:45.389Z,17.70
2019-04-28T10:29:51.749Z,17.70
2019-04-28T10:30:56.415Z,17.60
2019-04-28T10:32:00.865Z,17.60
2019-04-28T10:33:05.501Z,17.50
2019-04-28T10:34:10.083Z,17.40
2019-04-28T10:35:15.721Z,17.40
2019-04-28T10:36:20.150Z,17.50
2019-04-28T10:37:24.669Z,17.40
2019-04-28T10:38:30.381Z,17.20
2019-04-28T10:39:49.609Z,17.30
2019-04-28T10:41:01.881Z,17.30
2019-04-28T10:42:06.615Z,17.20
2019-04-28T10:43:11.909Z,17.10
2019-04-28T10:44:16.352Z,17.00
2019-04-28T10:45:23.902Z,17.10
2019-04-28T10:46:28.481Z,17.30
2019-04-28T10:47:33.044Z,17.50
2019-04-28T10:48:37.956Z,17.50
2019-04-28T10:49:42.881Z,17.40
2019-04-28T10:50:49.164Z,17.30
2019-04-28T10:51:59.510Z,17.20
2019-04-28T10:53:01.914Z,17.00
2019-04-28T10:54:06.566Z,17.00
2019-04-28T10:55:13.003Z,17.10
2019-04-28T10:56:17.757Z,17.20
2019-04-28T10:57:22.375Z,17.30
2019-04-28T10:58:26.922Z,17.40
2019-04-28T10:59:33.028Z,17.40
2019-04-28T11:00:38.759Z,17.60
2019-04-28T11:01:43.279Z,17.80
2019-04-28T11:02:48.281Z,17.90
2019-04-28T11:03:55.934Z,17.90
2019-04-28T11:05:16.863Z,17.80
2019-04-28T11:06:22.460Z,17.60
2019-04-28T11:07:27.129Z,17.60
2019-04-28T11:08:43.974Z,17.40
2019-04-28T11:10:03.337Z,17.40
2019-04-28T11:11:26.783Z,17.40
2019-04-28T11:12:32.212Z,17.40
2019-04-28T11:13:36.939Z,17.40
2019-04-28T11:14:41.490Z,17.40
2019-04-28T11:15:45.941Z,17.30
2019-04-28T11:16:50.521Z,17.10
2019-04-28T11:17:55.124Z,17.00
2019-04-28T11:18:59.653Z,16.90
2019-04-28T11:20:04.615Z,16.80
2019-04-28T11:21:09.482Z,16.70
2019-04-28T11:22:15.573Z,16.70
2019-04-28T11:23:23.052Z,16.40
2019-04-28T11:24:26.535Z,16.50
2019-04-28T11:25:31.041Z,16.40
2019-04-28T11:26:35.547Z,16.20
2019-04-28T11:27:40.211Z,16.10
2019-04-28T11:28:44.878Z,16.00
2019-04-28T11:29:49.466Z,16.00
2019-04-28T11:30:54.096Z,16.10
2019-04-28T11:31:58.587Z,16.00
2019-04-28T11:33:27.747Z,15.90
2019-04-28T11:34:39.047Z,15.60
2019-04-28T11:35:43.656Z,15.30
2019-04-28T11:36:48.339Z,15.10
2019-04-28T11:37:53.029Z,15.00
2019-04-28T11:38:57.705Z,15.00
2019-04-28T11:40:02.174Z,15.00
2019-04-28T11:41:06.964Z,15.00
2019-04-28T11:42:12.075Z,14.90
2019-04-28T11:43:16.990Z,14.90
2019-04-28T11:44:21.573Z,14.90
2019-04-28T11:45:27.484Z,14.80
2019-04-28T11:46:32.113Z,14.70
2019-04-28T11:47:38.162Z,14.40
2019-04-28T11:48:42.828Z,14.40
2019-04-28T11:49:47.404Z,14.40
2019-04-28T11:50:52.122Z,14.30
2019-04-28T11:51:57.933Z,14.20
2019-04-28T11:53:02.560Z,14.20
2019-04-28T11:54:08.022Z,14.40
2019-04-28T11:55:14.055Z,14.50
2019-04-28T11:56:18.840Z,14.60
2019-04-28T11:57:23.356Z,14.80
2019-04-28T11:58:28.898Z,14.80
2019-04-28T11:59:33.437Z,15.00
2019-04-28T12:00:38.772Z,15.00
2019-04-28T12:01:43.346Z,15.10
2019-04-28T12:02:47.964Z,15.20
2019-04-28T12:03:54.685Z,15.40
2019-04-28T12:04:59.902Z,15.50
2019-04-28T12:06:04.469Z,15.60
2019-04-28T12:07:08.932Z,15.60
2019-04-28T12:08:13.749Z,15.70
2019-04-28T12:10:03.737Z,15.80
2019-04-28T12:11:26.467Z,15.80
2019-04-28T12:12:43.244Z,15.90
2019-04-28T12:13:58.363Z,15.90
2019-04-28T12:15:16.308Z,15.80
2019-04-28T12:16:37.687Z,15.70
2019-04-28T12:18:00.494Z,15.60
2019-04-28T12:19:29.769Z,15.60
2019-04-28T12:20:34.154Z,15.50
2019-04-28T12:21:38.726Z,15.50
2019-04-28T12:22:43.241Z,15.40
2019-04-28T12:23:47.619Z,15.40
2019-04-28T12:24:52.152Z,15.40
2019-04-28T12:25:56.722Z,15.40
2019-04-28T12:27:01.226Z,15.40
2019-04-28T12:28:06.069Z,15.40
2019-04-28T12:29:10.678Z,15.50
2019-04-28T12:30:15.597Z,15.50
2019-04-28T12:31:20.084Z,15.70
2019-04-28T12:32:24.476Z,15.80
2019-04-28T12:33:28.969Z,15.80
2019-04-28T12:34:33.492Z,15.90
2019-04-28T12:35:47.565Z,15.90
2019-04-28T12:36:44.202Z,15.90
2019-04-28T12:37:48.687Z,15.80
2019-04-28T12:38:53.330Z,15.80
2019-04-28T12:39:57.883Z,15.70
2019-04-28T12:41:02.572Z,15.60
2019-04-28T12:42:07.242Z,15.40
2019-04-28T12:43:12.759Z,15.30
2019-04-28T12:44:17.974Z,15.30
2019-04-28T12:45:34.482Z,15.20
2019-04-28T12:46:28.656Z,15.10
2019-04-28T12:47:33.438Z,15.10
2019-04-28T12:48:39.651Z,15.00
2019-04-28T12:50:03.138Z,15.00
2019-04-28T12:51:07.683Z,14.90
2019-04-28T12:52:13.330Z,14.80
2019-04-28T12:53:18.022Z,14.70
2019-04-28T12:54:24.894Z,14.60
2019-04-28T12:55:29.588Z,14.50
2019-04-28T12:56:35.553Z,14.50
2019-04-28T12:57:40.051Z,14.40
2019-04-28T12:58:44.524Z,14.40
2019-04-28T12:59:56.759Z,14.30
2019-04-28T13:01:32.281Z,14.40
2019-04-28T13:03:01.456Z,14.40
2019-04-28T13:04:17.393Z,14.30
2019-04-28T13:05:21.879Z,14.30
2019-04-28T13:06:27.967Z,14.30
2019-04-28T13:07:32.498Z,14.30
2019-04-28T13:08:38.565Z,14.30
2019-04-28T13:09:43.009Z,14.30
2019-04-28T13:10:47.537Z,14.30
2019-04-28T13:11:52.011Z,14.30
2019-04-28T13:12:58.037Z,14.40
2019-04-28T13:14:02.533Z,14.40
2019-04-28T13:15:07.106Z,14.40
2019-04-28T13:16:11.940Z,14.40
2019-04-28T13:17:16.747Z,14.40
2019-04-28T13:18:21.282Z,14.30
2019-04-28T13:19:25.929Z,14.20
2019-04-28T13:20:31.670Z,14.20
2019-04-28T13:21:36.174Z,14.20
2019-04-28T13:22:40.986Z,14.30
2019-04-28T13:23:45.584Z,14.30
2019-04-28T13:24:50.023Z,14.40
2019-04-28T13:25:54.545Z,14.40
2019-04-28T13:26:59.100Z,14.50
2019-04-28T13:28:05.067Z,14.60
2019-04-28T13:29:09.734Z,14.70
2019-04-28T13:30:14.854Z,14.80
2019-04-28T13:31:19.665Z,14.80
2019-04-28T13:32:24.219Z,14.80
2019-04-28T13:33:28.701Z,15.00
2019-04-28T13:34:35.126Z,15.10
2019-04-28T13:35:39.807Z,15.20
2019-04-28T13:36:44.440Z,15.30
2019-04-28T13:37:48.920Z,15.50
2019-04-28T13:38:54.382Z,15.60
2019-04-28T13:40:01.883Z,15.70
2019-04-28T13:41:06.475Z,15.80
2019-04-28T13:42:12.531Z,16.00
2019-04-28T13:43:17.133Z,16.10
2019-04-28T13:44:39.600Z,16.20
2019-04-28T13:45:44.225Z,16.20
2019-04-28T13:46:50.034Z,16.40
2019-04-28T13:47:54.553Z,16.40
2019-04-28T13:48:59.132Z,16.50
2019-04-28T13:50:23.528Z,16.60
2019-04-28T13:51:27.975Z,16.70
2019-04-28T13:52:34.335Z,16.90
2019-04-28T13:53:38.941Z,17.00
2019-04-28T13:54:45.816Z,17.10
2019-04-28T13:55:57.579Z,17.20
2019-04-28T13:57:02.001Z,17.20
2019-04-28T13:58:06.573Z,17.30
2019-04-28T13:59:16.140Z,17.40
2019-04-28T14:00:26.725Z,17.50
2019-04-28T14:01:53.059Z,17.40
2019-04-28T14:03:08.142Z,17.50
2019-04-28T14:04:24.528Z,17.60
2019-04-28T14:05:47.918Z,17.50
2019-04-28T14:06:55.234Z,17.50
2019-04-28T14:07:59.737Z,17.30
2019-04-28T14:09:08.033Z,17.30
2019-04-28T14:10:13.123Z,17.20
2019-04-28T14:11:17.694Z,17.00
2019-04-28T14:12:22.496Z,16.80
2019-04-28T14:13:28.072Z,16.70
2019-04-28T14:14:32.533Z,16.60
2019-04-28T14:15:37.044Z,16.60
2019-04-28T14:16:41.566Z,16.50
2019-04-28T14:17:45.966Z,16.50
2019-04-28T14:18:51.739Z,16.50
2019-04-28T14:19:56.412Z,16.50
2019-04-28T14:21:01.004Z,16.60
2019-04-28T14:22:05.438Z,16.60
2019-04-28T14:23:10.193Z,16.60
2019-04-28T14:24:14.987Z,16.60
2019-04-28T14:25:20.836Z,16.50
2019-04-28T14:26:25.497Z,16.30
2019-04-28T14:27:30.117Z,16.10
2019-04-28T14:28:34.644Z,15.90
2019-04-28T14:29:40.488Z,15.80
2019-04-28T14:30:44.991Z,15.70
2019-04-28T14:31:49.381Z,15.70
2019-04-28T14:32:54.907Z,15.70
2019-04-28T14:34:01.586Z,15.80
2019-04-28T14:35:06.402Z,15.90